createdAt,value
2023-03-13T00:01:42.318Z,3.30
2023-03-13T00:04:12.510Z,3.60
2023-03-13T00:06:44.689Z,3.70
2023-03-13T00:09:14.842Z,4.20
2023-03-13T00:11:45.913Z,5.90
2023-03-13T00:14:15.220Z,3.20
2023-03-13T00:16:43.748Z,6.40
2023-03-13T00:19:12.383Z,4.70
2023-03-13T00:21:41.574Z,3.50
2023-03-13T00:24:17.740Z,3.00
2023-03-13T00:26:46.071Z,5.40
2023-03-13T00:29:14.236Z,4.40
2023-03-13T00:31:47.349Z,4.50
2023-03-13T00:34:18.006Z,5.80
2023-03-13T00:36:46.948Z,3.90
2023-03-13T00:39:24.658Z,3.80
2023-03-13T00:41:53.216Z,5.30
2023-03-13T00:44:23.637Z,3.80
2023-03-13T00:46:52.034Z,3.00
2023-03-13T00:49:20.332Z,4.00
2023-03-13T00:51:48.605Z,3.30
2023-03-13T00:54:16.545Z,3.10
2023-03-13T00:56:45.338Z,4.30
2023-03-13T00:59:14.625Z,3.30
2023-03-13T01:01:45.815Z,3.30
2023-03-13T01:04:14.580Z,4.20
2023-03-13T01:06:45.694Z,4.40
2023-03-13T01:09:15.541Z,4.40
2023-03-13T01:11:45.944Z,3.80
2023-03-13T01:14:17.458Z,4.60
2023-03-13T01:16:48.721Z,3.40
2023-03-13T01:19:17.211Z,2.70
2023-03-13T01:21:47.193Z,2.90
2023-03-13T01:24:16.946Z,4.60
2023-03-13T01:26:50.727Z,5.70
2023-03-13T01:29:20.572Z,3.30
2023-03-13T01:31:49.243Z,4.70
2023-03-13T01:34:23.374Z,4.00
2023-03-13T01:36:55.183Z,3.60
2023-03-13T01:39:23.490Z,3.80
2023-03-13T01:41:56.795Z,2.80
2023-03-13T01:44:26.442Z,4.90
2023-03-13T01:46:55.765Z,2.50
2023-03-13T01:49:33.700Z,4.00
2023-03-13T01:52:08.986Z,2.50
2023-03-13T01:54:56.256Z,2.90
2023-03-13T01:57:30.067Z,4.30
2023-03-13T02:00:16.479Z,3.30
2023-03-13T02:02:50.596Z,2.20
2023-03-13T02:05:23.066Z,3.00
2023-03-13T02:07:56.140Z,2.70
2023-03-13T02:10:25.809Z,5.30
2023-03-13T02:13:01.955Z,3.60
2023-03-13T02:15:33.466Z,5.60
2023-03-13T02:18:01.457Z,4.00
2023-03-13T02:20:33.584Z,3.80
2023-03-13T02:23:04.037Z,5.30
2023-03-13T02:25:49.028Z,3.80
2023-03-13T02:28:25.597Z,4.40
2023-03-13T02:30:58.946Z,6.30
2023-03-13T02:33:29.496Z,3.30
2023-03-13T02:36:00.157Z,3.80
2023-03-13T02:38:30.480Z,4.60
2023-03-13T02:40:59.509Z,5.00
2023-03-13T02:43:31.571Z,6.20
2023-03-13T02:46:17.648Z,5.00
2023-03-13T02:48:54.952Z,8.80
2023-03-13T02:51:42.221Z,6.60
2023-03-13T02:54:25.158Z,7.00
2023-03-13T02:56:56.075Z,6.70
2023-03-13T02:59:25.273Z,6.50
2023-03-13T03:01:53.320Z,24.30
2023-03-13T03:04:22.402Z,10.90
2023-03-13T03:06:54.400Z,9.30
2023-03-13T03:09:23.170Z,11.50
2023-03-13T03:11:56.400Z,7.50
2023-03-13T03:14:27.080Z,6.20
2023-03-13T03:16:55.925Z,4.90
2023-03-13T03:19:31.547Z,5.90
2023-03-13T03:22:00.273Z,7.10
2023-03-13T03:24:28.592Z,5.40
2023-03-13T03:26:56.727Z,3.60
2023-03-13T03:29:28.361Z,4.30
2023-03-13T03:31:57.144Z,6.30
2023-03-13T03:34:26.188Z,6.80
2023-03-13T03:36:56.351Z,5.20
2023-03-13T03:39:24.974Z,5.30
2023-03-13T03:41:53.004Z,4.50
2023-03-13T03:44:22.546Z,4.40
2023-03-13T03:46:58.724Z,3.70
2023-03-13T03:49:28.243Z,3.70
2023-03-13T03:51:56.668Z,10.10
2023-03-13T03:54:29.545Z,7.20
2023-03-13T03:56:58.306Z,8.50
2023-03-13T03:59:32.870Z,8.00
2023-03-13T04:02:08.871Z,8.00
2023-03-13T04:04:37.626Z,13.40
2023-03-13T04:07:10.220Z,8.40
2023-03-13T04:09:38.365Z,9.60
2023-03-13T04:12:09.242Z,8.60
2023-03-13T04:14:45.592Z,9.10
2023-03-13T04:17:17.308Z,10.60
2023-03-13T04:19:48.317Z,14.90
2023-03-13T04:22:16.699Z,13.80
2023-03-13T04:27:19.613Z,13.20
2023-03-13T04:29:48.873Z,12.00
2023-03-13T04:32:36.741Z,16.30
2023-03-13T04:35:25.558Z,22.10
2023-03-13T04:38:08.327Z,13.90
2023-03-13T04:40:58.214Z,14.90
2023-03-13T04:46:08.921Z,12.20
2023-03-13T04:48:56.266Z,10.60
2023-03-13T04:51:44.202Z,12.70
2023-03-13T04:54:27.561Z,13.30
2023-03-13T04:57:20.947Z,20.30
2023-03-13T05:00:12.661Z,13.90
2023-03-13T05:03:00.637Z,12.20
2023-03-13T05:05:49.776Z,31.30
2023-03-13T05:08:35.787Z,33.30
2023-03-13T05:11:23.269Z,34.60
2023-03-13T05:14:16.757Z,28.70
2023-03-13T05:19:58.049Z,33.90
2023-03-13T05:22:58.518Z,36.30
2023-03-13T05:25:35.819Z,25.50
2023-03-13T05:28:17.410Z,15.50
2023-03-13T05:32:34.685Z,17.80
2023-03-13T05:35:15.653Z,15.30
2023-03-13T05:38:00.271Z,18.90
2023-03-13T05:40:36.747Z,20.30
2023-03-13T05:43:03.380Z,18.90
2023-03-13T05:45:53.552Z,16.20
2023-03-13T05:48:41.633Z,28.60
2023-03-13T05:51:25.907Z,21.90
2023-03-13T05:54:18.691Z,24.80
2023-03-13T05:57:08.366Z,23.10
2023-03-13T05:59:45.279Z,24.90
2023-03-13T06:02:41.151Z,23.80
2023-03-13T06:05:14.614Z,26.10
2023-03-13T06:07:41.697Z,20.60
2023-03-13T06:10:09.507Z,17.40
2023-03-13T06:12:36.416Z,21.10
2023-03-13T06:15:06.969Z,21.90
2023-03-13T06:17:52.732Z,17.30
2023-03-13T06:20:19.450Z,19.50
2023-03-13T06:22:52.076Z,16.40
2023-03-13T06:25:19.240Z,18.70
2023-03-13T06:27:45.828Z,22.10
2023-03-13T06:30:13.291Z,14.20
2023-03-13T06:32:40.323Z,20.50
2023-03-13T06:35:08.618Z,17.40
2023-03-13T06:37:35.962Z,16.70
2023-03-13T06:40:04.411Z,18.20
2023-03-13T06:42:31.685Z,21.60
2023-03-13T06:44:58.347Z,20.80
2023-03-13T06:47:25.591Z,28.10
2023-03-13T06:49:52.340Z,16.50
2023-03-13T06:52:20.273Z,15.00
2023-03-13T06:54:48.052Z,16.00
2023-03-13T06:57:14.759Z,16.50
2023-03-13T06:59:42.257Z,16.60
2023-03-13T07:02:12.312Z,14.70
2023-03-13T07:04:39.221Z,13.30
2023-03-13T07:07:06.167Z,11.80
2023-03-13T07:09:33.397Z,10.10
2023-03-13T07:12:02.820Z,12.50
2023-03-13T07:14:29.699Z,12.30
2023-03-13T07:16:58.497Z,11.30
2023-03-13T07:19:26.860Z,9.10
2023-03-13T07:21:53.753Z,8.70
2023-03-13T07:24:23.240Z,7.60
2023-03-13T07:27:04.143Z,8.50
2023-03-13T07:29:33.868Z,7.50
2023-03-13T07:32:01.051Z,10.20
2023-03-13T07:34:27.936Z,13.40
2023-03-13T07:36:55.673Z,10.00
2023-03-13T07:39:22.662Z,8.70
2023-03-13T07:41:49.683Z,10.70
2023-03-13T07:44:17.711Z,7.00
2023-03-13T07:46:45.428Z,8.20
2023-03-13T07:49:12.568Z,8.60
2023-03-13T07:51:43.914Z,9.60
2023-03-13T07:54:15.367Z,10.80
2023-03-13T07:56:42.129Z,9.10
2023-03-13T07:59:09.420Z,8.00
2023-03-13T08:01:37.084Z,11.20
2023-03-13T08:04:04.607Z,9.00
2023-03-13T08:06:40.496Z,11.90
2023-03-13T08:09:08.601Z,11.30
2023-03-13T08:11:35.730Z,11.40
2023-03-13T08:14:02.820Z,9.20
2023-03-13T08:16:33.709Z,6.90
2023-03-13T08:19:00.565Z,6.20
2023-03-13T08:21:29.963Z,8.10
2023-03-13T08:24:02.034Z,8.50
2023-03-13T08:26:32.808Z,11.10
2023-03-13T08:29:00.994Z,8.40
2023-03-13T08:31:32.883Z,8.40
2023-03-13T08:33:59.977Z,9.30
2023-03-13T08:36:31.630Z,9.30
2023-03-13T08:39:01.214Z,11.20
2023-03-13T08:41:29.824Z,11.30
2023-03-13T08:43:57.344Z,9.70
2023-03-13T08:46:25.000Z,8.30
2023-03-13T08:48:53.226Z,8.80
2023-03-13T08:51:21.299Z,11.30
2023-03-13T08:53:48.787Z,10.70
2023-03-13T08:56:24.869Z,9.20
2023-03-13T08:58:53.375Z,11.30
2023-03-13T09:01:21.288Z,11.30
2023-03-13T09:03:49.246Z,6.70
2023-03-13T09:06:19.307Z,8.40
2023-03-13T09:08:47.054Z,8.40
2023-03-13T09:11:18.337Z,9.30
2023-03-13T09:13:48.872Z,10.90
2023-03-13T09:16:22.831Z,11.80
2023-03-13T09:18:51.033Z,8.10
2023-03-13T09:21:19.708Z,11.80
2023-03-13T09:23:47.430Z,9.10
2023-03-13T09:26:14.313Z,10.10
2023-03-13T09:28:44.736Z,10.80
2023-03-13T09:31:19.415Z,9.10
2023-03-13T09:33:47.468Z,9.40
2023-03-13T09:36:14.631Z,9.40
2023-03-13T09:38:41.675Z,7.60
2023-03-13T09:41:17.223Z,8.00
2023-03-13T09:43:50.091Z,9.10
2023-03-13T09:46:26.172Z,7.60
2023-03-13T09:49:00.790Z,7.70
2023-03-13T09:51:38.226Z,9.60
2023-03-13T09:54:19.395Z,8.50
2023-03-13T09:56:56.132Z,7.20
2023-03-13T09:59:36.819Z,9.50
2023-03-13T10:02:03.826Z,9.90
2023-03-13T10:04:41.122Z,9.20
2023-03-13T10:07:11.148Z,8.40
2023-03-13T10:09:40.309Z,6.70
2023-03-13T10:12:20.854Z,7.10
2023-03-13T10:15:03.747Z,9.50
2023-03-13T10:17:32.812Z,6.70
2023-03-13T10:20:10.112Z,8.90
2023-03-13T10:22:37.306Z,8.20
2023-03-13T10:25:23.953Z,10.30
2023-03-13T10:27:51.270Z,7.10
2023-03-13T10:30:23.478Z,10.90
2023-03-13T10:32:50.352Z,12.40
2023-03-13T10:35:22.185Z,10.50
2023-03-13T10:37:48.877Z,8.80
2023-03-13T10:40:25.185Z,6.20
2023-03-13T10:42:59.051Z,9.40
2023-03-13T10:45:31.548Z,11.70
2023-03-13T10:48:20.971Z,11.10
2023-03-13T10:50:56.814Z,7.50
2023-03-13T10:53:30.274Z,5.50
2023-03-13T10:56:02.886Z,7.70
2023-03-13T10:58:45.571Z,6.60
2023-03-13T11:01:18.448Z,7.50
2023-03-13T11:03:49.506Z,9.20
2023-03-13T11:06:25.746Z,8.60
2023-03-13T11:08:59.356Z,7.30
2023-03-13T11:11:30.416Z,8.70
2023-03-13T11:14:07.880Z,10.30
2023-03-13T11:16:42.240Z,10.10
2023-03-13T11:19:28.701Z,12.10
2023-03-13T11:22:13.951Z,9.30
2023-03-13T11:24:45.750Z,9.50
2023-03-13T11:27:34.567Z,11.00
2023-03-13T11:30:23.187Z,9.10
2023-03-13T11:33:22.122Z,10.30
2023-03-13T11:35:53.654Z,6.60
2023-03-13T11:38:27.088Z,6.10
2023-03-13T11:41:05.803Z,10.90
2023-03-13T11:43:41.100Z,9.00
2023-03-13T11:46:14.913Z,9.60
2023-03-13T11:48:53.799Z,5.80
2023-03-13T11:51:52.962Z,6.80
2023-03-13T11:55:05.015Z,7.70
2023-03-13T11:58:06.883Z,6.70
2023-03-13T12:01:14.106Z,7.20
2023-03-13T12:03:58.261Z,10.70
2023-03-13T12:06:37.551Z,6.10
2023-03-13T12:09:09.886Z,7.30
2023-03-13T12:12:03.994Z,6.50
2023-03-13T12:14:50.083Z,5.80
2023-03-13T12:17:38.294Z,7.90
2023-03-13T12:20:11.232Z,6.40
2023-03-13T12:22:44.911Z,8.10
2023-03-13T12:27:41.963Z,7.60
2023-03-13T12:30:18.409Z,8.00
2023-03-13T12:32:49.717Z,7.90
2023-03-13T12:35:28.277Z,7.20
2023-03-13T12:38:20.544Z,8.50
2023-03-13T12:40:52.641Z,9.70
2023-03-13T12:43:30.374Z,11.00
2023-03-13T12:46:38.529Z,7.50
2023-03-13T12:49:24.736Z,12.70
2023-03-13T12:52:14.858Z,8.20
2023-03-13T12:54:47.716Z,7.90
2023-03-13T12:57:51.725Z,12.00
2023-03-13T13:00:21.182Z,10.60
2023-03-13T13:02:47.760Z,10.10
2023-03-13T13:05:18.616Z,6.90
2023-03-13T13:07:53.048Z,11.20
2023-03-13T13:10:25.770Z,10.90
2023-03-13T13:13:14.367Z,8.60
2023-03-13T13:16:01.253Z,8.80
2023-03-13T13:18:29.801Z,11.40
2023-03-13T13:21:02.540Z,7.70
2023-03-13T13:23:41.498Z,6.00
2023-03-13T13:26:26.323Z,6.70
2023-03-13T13:28:53.583Z,7.50
2023-03-13T13:31:59.679Z,6.40
2023-03-13T13:34:33.888Z,8.50
2023-03-13T13:37:01.374Z,11.20
2023-03-13T13:39:28.115Z,7.40
2023-03-13T13:41:55.446Z,7.30
2023-03-13T13:44:28.524Z,6.20
2023-03-13T13:49:35.029Z,9.40
2023-03-13T13:52:04.626Z,9.20
2023-03-13T13:54:33.975Z,6.40
2023-03-13T13:57:12.174Z,7.60
2023-03-13T13:59:42.540Z,8.60
2023-03-13T14:02:10.358Z,7.90
2023-03-13T14:04:38.637Z,6.90
2023-03-13T14:07:06.141Z,8.80
2023-03-13T14:09:49.533Z,7.10
2023-03-13T14:12:29.979Z,7.10
2023-03-13T14:15:13.371Z,6.90
2023-03-13T14:17:50.824Z,8.10
2023-03-13T14:20:33.798Z,7.40
2023-03-13T14:23:04.270Z,8.00
2023-03-13T14:25:51.193Z,7.30
2023-03-13T14:28:21.991Z,8.00
2023-03-13T14:30:50.405Z,8.60
2023-03-13T14:33:17.355Z,10.10
2023-03-13T14:35:44.878Z,9.10
2023-03-13T14:38:22.391Z,8.90
2023-03-13T14:40:50.469Z,10.30
2023-03-13T14:43:37.642Z,10.70
2023-03-13T14:46:15.535Z,10.50
2023-03-13T14:48:42.826Z,12.90
2023-03-13T14:51:15.728Z,9.70
2023-03-13T14:56:42.600Z,8.50
2023-03-13T14:59:17.596Z,10.00
2023-03-13T15:01:45.540Z,11.10
2023-03-13T15:04:13.316Z,10.40
2023-03-13T15:06:42.491Z,9.50
2023-03-13T15:09:09.497Z,7.30
2023-03-13T15:11:59.579Z,10.70
2023-03-13T15:14:40.837Z,9.40
2023-03-13T15:17:24.287Z,9.50
2023-03-13T15:19:55.745Z,14.90
2023-03-13T15:22:32.603Z,10.70
2023-03-13T15:25:06.400Z,8.80
2023-03-13T15:27:46.036Z,11.30
2023-03-13T15:30:17.231Z,15.10
2023-03-13T15:32:46.538Z,13.50
2023-03-13T15:35:32.776Z,11.80
2023-03-13T15:38:00.963Z,14.80
2023-03-13T15:40:28.088Z,12.40
2023-03-13T15:42:54.891Z,13.50
2023-03-13T15:45:22.142Z,9.90
2023-03-13T15:47:49.412Z,11.20
2023-03-13T15:50:18.181Z,10.00
2023-03-13T15:52:44.862Z,13.60
2023-03-13T15:55:16.748Z,13.50
2023-03-13T15:57:48.661Z,14.00
2023-03-13T16:00:24.284Z,12.10
2023-03-13T16:02:51.400Z,13.30
2023-03-13T16:05:18.618Z,16.20
2023-03-13T16:07:47.865Z,14.90
2023-03-13T16:10:19.998Z,14.50
2023-03-13T16:12:48.386Z,15.30
2023-03-13T16:15:16.735Z,15.40
2023-03-13T16:17:43.623Z,13.70
2023-03-13T16:20:17.930Z,15.60
2023-03-13T16:22:45.962Z,14.90
2023-03-13T16:25:13.887Z,14.40
2023-03-13T16:27:43.210Z,13.40
2023-03-13T16:30:17.946Z,13.10
2023-03-13T16:32:48.057Z,14.90
2023-03-13T16:35:14.633Z,13.50
2023-03-13T16:37:41.305Z,12.00
2023-03-13T16:40:16.626Z,13.20
2023-03-13T16:42:43.289Z,13.10
2023-03-13T16:45:14.396Z,16.20
2023-03-13T16:47:42.338Z,15.60
2023-03-13T16:50:17.838Z,14.10
2023-03-13T16:52:44.650Z,18.80
2023-03-13T16:55:11.216Z,9.90
2023-03-13T16:57:38.512Z,11.40
2023-03-13T17:00:19.828Z,12.10
2023-03-13T17:02:47.625Z,9.50
2023-03-13T17:05:15.535Z,13.20
2023-03-13T17:07:47.294Z,13.40
2023-03-13T17:10:30.693Z,12.50
2023-03-13T17:12:58.623Z,11.30
2023-03-13T17:15:25.228Z,10.50
2023-03-13T17:17:53.536Z,8.20
2023-03-13T17:20:26.917Z,12.90
2023-03-13T17:22:55.650Z,12.90
2023-03-13T17:25:22.788Z,11.00
2023-03-13T17:27:51.604Z,8.30
2023-03-13T17:30:26.578Z,8.50
2023-03-13T17:32:53.882Z,9.70
2023-03-13T17:35:21.362Z,10.40
2023-03-13T17:37:48.477Z,13.20
2023-03-13T17:40:26.203Z,13.20
2023-03-13T17:42:55.548Z,11.20
2023-03-13T17:45:22.387Z,9.00
2023-03-13T17:50:22.868Z,10.50
2023-03-13T17:52:50.537Z,10.10
2023-03-13T17:55:17.459Z,13.70
2023-03-13T17:57:44.237Z,15.90
2023-03-13T18:00:33.179Z,10.00
2023-03-13T18:03:00.212Z,11.40
2023-03-13T18:05:27.831Z,10.10
2023-03-13T18:07:55.582Z,11.70
2023-03-13T18:10:23.642Z,10.60
2023-03-13T18:12:50.944Z,10.10
2023-03-13T18:15:18.881Z,13.20
2023-03-13T18:17:50.467Z,9.10
2023-03-13T18:20:20.342Z,11.20
2023-03-13T18:22:47.516Z,14.90
2023-03-13T18:25:14.558Z,10.90
2023-03-13T18:27:43.340Z,13.90
2023-03-13T18:30:18.446Z,11.70
2023-03-13T18:32:46.745Z,11.40
2023-03-13T18:35:13.999Z,12.50
2023-03-13T18:37:45.108Z,13.40
2023-03-13T18:40:22.818Z,11.50
2023-03-13T18:42:50.456Z,10.60
2023-03-13T18:45:19.573Z,9.70
2023-03-13T18:47:47.558Z,11.70
2023-03-13T18:50:19.836Z,10.50
2023-03-13T18:52:47.045Z,7.70
2023-03-13T18:55:13.973Z,13.00
2023-03-13T18:57:44.603Z,9.70
2023-03-13T19:00:23.824Z,13.20
2023-03-13T19:02:50.931Z,10.50
2023-03-13T19:05:18.489Z,12.20
2023-03-13T19:07:48.016Z,11.00
2023-03-13T19:10:26.170Z,12.00
2023-03-13T19:12:56.198Z,8.70
2023-03-13T19:15:25.332Z,10.80
2023-03-13T19:17:55.615Z,9.10
2023-03-13T19:20:27.016Z,9.20
2023-03-13T19:22:55.973Z,11.10
2023-03-13T19:25:23.256Z,6.50
2023-03-13T19:27:51.145Z,8.20
2023-03-13T19:30:20.763Z,9.40
2023-03-13T19:32:49.580Z,9.60
2023-03-13T19:35:18.212Z,9.60
2023-03-13T19:37:46.868Z,7.20
2023-03-13T19:40:25.252Z,8.40
2023-03-13T19:42:52.346Z,7.90
2023-03-13T19:45:21.106Z,9.10
2023-03-13T19:47:50.187Z,7.90
2023-03-13T19:50:22.590Z,12.00
2023-03-13T19:52:49.674Z,8.10
2023-03-13T19:55:16.550Z,7.80
2023-03-13T19:57:43.790Z,7.70
2023-03-13T20:00:19.214Z,8.90
2023-03-13T20:02:45.876Z,10.30
2023-03-13T20:05:13.263Z,9.80
2023-03-13T20:07:40.628Z,8.90
2023-03-13T20:10:08.210Z,9.10
2023-03-13T20:12:35.411Z,10.60
2023-03-13T20:15:04.759Z,8.60
2023-03-13T20:17:31.941Z,8.60
2023-03-13T20:20:00.213Z,9.40
2023-03-13T20:22:26.869Z,10.00
2023-03-13T20:24:55.475Z,9.60
2023-03-13T20:27:23.516Z,8.80
2023-03-13T20:29:50.244Z,9.80
2023-03-13T20:32:17.060Z,10.20
2023-03-13T20:34:44.871Z,9.90
2023-03-13T20:37:11.947Z,8.40
2023-03-13T20:39:43.176Z,8.60
2023-03-13T20:42:10.064Z,8.50
2023-03-13T20:44:36.864Z,8.20
2023-03-13T20:47:04.162Z,8.20
2023-03-13T20:49:31.041Z,10.20
2023-03-13T20:51:57.635Z,10.70
2023-03-13T20:54:24.228Z,6.90
2023-03-13T20:56:50.748Z,7.40
2023-03-13T20:59:17.430Z,7.90
2023-03-13T21:01:44.147Z,6.00
2023-03-13T21:04:12.718Z,8.70
2023-03-13T21:06:40.104Z,8.70
2023-03-13T21:09:10.331Z,9.10
2023-03-13T21:11:37.676Z,9.40
2023-03-13T21:14:05.653Z,8.70
2023-03-13T21:16:33.735Z,8.80
2023-03-13T21:19:04.661Z,9.50
2023-03-13T21:21:32.844Z,8.60
2023-03-13T21:24:05.905Z,8.30
2023-03-13T21:26:34.215Z,10.10
2023-03-13T21:29:00.915Z,9.00
2023-03-13T21:31:29.392Z,8.40
2023-03-13T21:33:56.764Z,8.90
2023-03-13T21:36:24.434Z,7.40
2023-03-13T21:38:51.892Z,9.50
2023-03-13T21:41:23.748Z,7.80
2023-03-13T21:43:57.857Z,7.90
2023-03-13T21:48:51.961Z,11.50
2023-03-13T21:51:18.739Z,7.10
2023-03-13T21:53:49.048Z,8.10
2023-03-13T21:56:16.869Z,6.10
2023-03-13T21:58:44.840Z,8.30
2023-03-13T22:01:12.252Z,7.00
2023-03-13T22:03:39.363Z,7.20
2023-03-13T22:06:17.143Z,8.70
2023-03-13T22:08:50.544Z,10.00
2023-03-13T22:11:22.783Z,7.70
2023-03-13T22:13:52.152Z,10.20
2023-03-13T22:16:20.469Z,6.30
2023-03-13T22:18:50.938Z,6.90
2023-03-13T22:21:17.932Z,7.50
2023-03-13T22:23:45.450Z,12.10
2023-03-13T22:26:14.115Z,10.00
2023-03-13T22:28:41.166Z,7.70
2023-03-13T22:31:09.241Z,9.40
2023-03-13T22:33:36.241Z,7.70
2023-03-13T22:36:03.937Z,7.20
2023-03-13T22:38:35.538Z,8.40
2023-03-13T22:41:05.223Z,6.70
2023-03-13T22:43:34.780Z,9.60
2023-03-13T22:46:04.456Z,9.80
2023-03-13T22:48:31.492Z,7.80
2023-03-13T22:51:06.644Z,8.30
2023-03-13T22:53:36.360Z,6.60
2023-03-13T22:56:05.824Z,8.20
2023-03-13T22:58:35.021Z,6.40
2023-03-13T23:01:11.825Z,8.00
2023-03-13T23:03:40.242Z,6.90
2023-03-13T23:06:09.217Z,7.90
2023-03-13T23:08:37.197Z,8.60
2023-03-13T23:11:04.963Z,6.70
2023-03-13T23:13:32.310Z,8.00
2023-03-13T23:16:00.517Z,6.70
2023-03-13T23:18:27.966Z,8.50
2023-03-13T23:20:54.841Z,6.50
2023-03-13T23:23:21.726Z,7.90
2023-03-13T23:25:49.066Z,7.40
2023-03-13T23:28:18.180Z,7.60
2023-03-13T23:30:45.359Z,10.10
2023-03-13T23:33:13.818Z,8.10
2023-03-13T23:35:48.950Z,8.60
2023-03-13T23:38:17.837Z,5.20
2023-03-13T23:40:46.001Z,7.10
2023-03-13T23:43:12.566Z,6.30
2023-03-13T23:45:39.173Z,7.50
2023-03-13T23:48:06.617Z,7.60
2023-03-13T23:50:33.417Z,8.00
2023-03-13T23:53:00.368Z,9.50
2023-03-13T23:55:27.677Z,7.40
2023-03-13T23:57:59.363Z,8.10
